sensor_id;sensor_type;location;lat;lon;timestamp;temperature;humidity
24730;DHT22;12832;52.392;13.066;2023-07-29T00:01:17;27.90;52.70
24730;DHT22;12832;52.392;13.066;2023-07-29T00:03:43;27.80;52.70
24730;DHT22;12832;52.392;13.066;2023-07-29T00:06:09;27.90;52.70
24730;DHT22;12832;52.392;13.066;2023-07-29T00:08:36;27.80;52.70
24730;DHT22;12832;52.392;13.066;2023-07-29T00:11:02;27.90;52.70
24730;DHT22;12832;52.392;13.066;2023-07-29T00:13:28;27.90;52.70
24730;DHT22;12832;52.392;13.066;2023-07-29T00:15:55;27.90;52.70
24730;DHT22;12832;52.392;13.066;2023-07-29T00:18:24;27.90;52.70
24730;DHT22;12832;52.392;13.066;2023-07-29T00:20:51;27.90;52.70
24730;DHT22;12832;52.392;13.066;2023-07-29T00:23:17;27.90;52.70
24730;DHT22;12832;52.392;13.066;2023-07-29T00:25:47;27.90;52.70
24730;DHT22;12832;52.392;13.066;2023-07-29T00:28:14;27.90;52.70
24730;DHT22;12832;52.392;13.066;2023-07-29T00:30:40;27.90;52.70
24730;DHT22;12832;52.392;13.066;2023-07-29T00:33:07;27.90;52.70
24730;DHT22;12832;52.392;13.066;2023-07-29T00:35:34;27.90;52.70
24730;DHT22;12832;52.392;13.066;2023-07-29T00:38:00;27.90;52.70
24730;DHT22;12832;52.392;13.066;2023-07-29T00:40:28;27.90;52.60
24730;DHT22;12832;52.392;13.066;2023-07-29T00:42:55;27.90;52.60
24730;DHT22;12832;52.392;13.066;2023-07-29T00:45:22;27.90;52.70
24730;DHT22;12832;52.392;13.066;2023-07-29T00:47:49;27.90;52.60
24730;DHT22;12832;52.392;13.066;2023-07-29T00:50:15;27.90;52.60
24730;DHT22;12832;52.392;13.066;2023-07-29T00:52:42;27.90;52.60
24730;DHT22;12832;52.392;13.066;2023-07-29T00:55:08;27.90;52.60
24730;DHT22;12832;52.392;13.066;2023-07-29T00:57:35;27.90;52.60
24730;DHT22;12832;52.392;13.066;2023-07-29T01:00:02;27.90;52.60
24730;DHT22;12832;52.392;13.066;2023-07-29T01:02:29;27.90;52.60
24730;DHT22;12832;52.392;13.066;2023-07-29T01:04:57;27.90;52.60
24730;DHT22;12832;52.392;13.066;2023-07-29T01:13:06;27.90;52.50
24730;DHT22;12832;52.392;13.066;2023-07-29T01:15:35;27.90;52.60
24730;DHT22;12832;52.392;13.066;2023-07-29T01:18:05;27.90;52.60
24730;DHT22;12832;52.392;13.066;2023-07-29T01:20:33;27.90;52.50
24730;DHT22;12832;52.392;13.066;2023-07-29T01:23:00;27.90;52.50
24730;DHT22;12832;52.392;13.066;2023-07-29T01:25:26;27.90;52.50
24730;DHT22;12832;52.392;13.066;2023-07-29T01:27:52;27.90;52.50
24730;DHT22;12832;52.392;13.066;2023-07-29T01:30:20;27.90;52.50
24730;DHT22;12832;52.392;13.066;2023-07-29T01:35:43;27.90;52.50
24730;DHT22;12832;52.392;13.066;2023-07-29T01:38:17;27.90;52.50
24730;DHT22;12832;52.392;13.066;2023-07-29T01:40:45;27.90;52.50
24730;DHT22;12832;52.392;13.066;2023-07-29T01:43:12;27.90;52.50
24730;DHT22;12832;52.392;13.066;2023-07-29T01:45:39;27.90;52.40
24730;DHT22;12832;52.392;13.066;2023-07-29T01:48:06;27.90;52.50
24730;DHT22;12832;52.392;13.066;2023-07-29T01:50:36;27.90;52.40
24730;DHT22;12832;52.392;13.066;2023-07-29T01:53:02;27.90;52.50
24730;DHT22;12832;52.392;13.066;2023-07-29T01:55:28;27.90;52.40
24730;DHT22;12832;52.392;13.066;2023-07-29T01:57:55;27.90;52.50
24730;DHT22;12832;52.392;13.066;2023-07-29T02:00:21;27.90;52.40
24730;DHT22;12832;52.392;13.066;2023-07-29T02:02:47;27.90;52.40
24730;DHT22;12832;52.392;13.066;2023-07-29T02:05:14;27.90;52.40
24730;DHT22;12832;52.392;13.066;2023-07-29T02:07:40;27.90;52.40
24730;DHT22;12832;52.392;13.066;2023-07-29T02:10:06;27.90;52.40
24730;DHT22;12832;52.392;13.066;2023-07-29T02:12:33;27.90;52.40
24730;DHT22;12832;52.392;13.066;2023-07-29T02:15:00;27.90;52.40
24730;DHT22;12832;52.392;13.066;2023-07-29T02:17:26;27.90;52.40
24730;DHT22;12832;52.392;13.066;2023-07-29T02:19:52;27.90;52.50
24730;DHT22;12832;52.392;13.066;2023-07-29T02:22:19;27.90;52.50
24730;DHT22;12832;52.392;13.066;2023-07-29T02:24:45;27.90;52.50
24730;DHT22;12832;52.392;13.066;2023-07-29T02:27:11;27.90;52.50
24730;DHT22;12832;52.392;13.066;2023-07-29T02:29:38;27.90;52.50
24730;DHT22;12832;52.392;13.066;2023-07-29T02:32:04;27.90;52.50
24730;DHT22;12832;52.392;13.066;2023-07-29T02:34:30;27.90;52.50
24730;DHT22;12832;52.392;13.066;2023-07-29T02:36:56;27.80;52.40
24730;DHT22;12832;52.392;13.066;2023-07-29T02:39:23;27.90;52.50
24730;DHT22;12832;52.392;13.066;2023-07-29T02:41:49;27.90;52.50
24730;DHT22;12832;52.392;13.066;2023-07-29T02:44:16;27.80;52.50
24730;DHT22;12832;52.392;13.066;2023-07-29T02:46:42;27.80;52.50
24730;DHT22;12832;52.392;13.066;2023-07-29T02:49:08;27.80;52.50
24730;DHT22;12832;52.392;13.066;2023-07-29T02:51:34;27.80;52.50
24730;DHT22;12832;52.392;13.066;2023-07-29T02:54:00;27.70;52.50
24730;DHT22;12832;52.392;13.066;2023-07-29T02:56:27;27.70;52.40
24730;DHT22;12832;52.392;13.066;2023-07-29T02:58:53;27.80;52.50
24730;DHT22;12832;52.392;13.066;2023-07-29T03:01:19;27.80;52.50
24730;DHT22;12832;52.392;13.066;2023-07-29T03:03:46;27.70;52.40
24730;DHT22;12832;52.392;13.066;2023-07-29T03:06:13;27.70;52.40
24730;DHT22;12832;52.392;13.066;2023-07-29T03:08:40;27.70;52.50
24730;DHT22;12832;52.392;13.066;2023-07-29T03:11:08;27.70;52.50
24730;DHT22;12832;52.392;13.066;2023-07-29T03:13:34;27.70;52.50
24730;DHT22;12832;52.392;13.066;2023-07-29T03:18:34;27.70;52.60
24730;DHT22;12832;52.392;13.066;2023-07-29T03:21:00;27.70;52.50
24730;DHT22;12832;52.392;13.066;2023-07-29T03:23:28;27.70;52.50
24730;DHT22;12832;52.392;13.066;2023-07-29T03:25:58;27.70;52.50
24730;DHT22;12832;52.392;13.066;2023-07-29T03:28:29;27.70;52.50
24730;DHT22;12832;52.392;13.066;2023-07-29T03:30:56;27.70;52.50
24730;DHT22;12832;52.392;13.066;2023-07-29T03:33:22;27.70;52.50
24730;DHT22;12832;52.392;13.066;2023-07-29T03:35:49;27.70;52.50
24730;DHT22;12832;52.392;13.066;2023-07-29T03:38:15;27.70;52.50
24730;DHT22;12832;52.392;13.066;2023-07-29T03:40:42;27.70;52.50
24730;DHT22;12832;52.392;13.066;2023-07-29T03:43:09;27.70;52.60
24730;DHT22;12832;52.392;13.066;2023-07-29T03:45:36;27.70;52.50
24730;DHT22;12832;52.392;13.066;2023-07-29T03:48:03;27.70;52.50
24730;DHT22;12832;52.392;13.066;2023-07-29T03:50:30;27.60;52.50
24730;DHT22;12832;52.392;13.066;2023-07-29T03:52:56;27.60;52.50
24730;DHT22;12832;52.392;13.066;2023-07-29T03:55:23;27.60;52.50
24730;DHT22;12832;52.392;13.066;2023-07-29T03:57:49;27.60;52.40
24730;DHT22;12832;52.392;13.066;2023-07-29T04:00:15;27.60;52.50
24730;DHT22;12832;52.392;13.066;2023-07-29T04:02:42;27.60;52.50
24730;DHT22;12832;52.392;13.066;2023-07-29T04:05:11;27.60;52.50
24730;DHT22;12832;52.392;13.066;2023-07-29T04:07:37;27.60;52.50
24730;DHT22;12832;52.392;13.066;2023-07-29T04:10:05;27.60;52.50
24730;DHT22;12832;52.392;13.066;2023-07-29T04:12:31;27.60;52.50
24730;DHT22;12832;52.392;13.066;2023-07-29T04:14:57;27.60;52.50
24730;DHT22;12832;52.392;13.066;2023-07-29T04:17:23;27.60;52.50
24730;DHT22;12832;52.392;13.066;2023-07-29T04:19:50;27.60;52.50
24730;DHT22;12832;52.392;13.066;2023-07-29T04:22:16;27.60;52.50
24730;DHT22;12832;52.392;13.066;2023-07-29T04:24:43;27.60;52.50
24730;DHT22;12832;52.392;13.066;2023-07-29T04:27:09;27.60;52.50
24730;DHT22;12832;52.392;13.066;2023-07-29T04:29:36;27.60;52.50
24730;DHT22;12832;52.392;13.066;2023-07-29T04:32:03;27.60;52.50
24730;DHT22;12832;52.392;13.066;2023-07-29T04:34:29;27.60;52.50
24730;DHT22;12832;52.392;13.066;2023-07-29T04:36:55;27.50;52.50
24730;DHT22;12832;52.392;13.066;2023-07-29T04:39:21;27.50;52.50
24730;DHT22;12832;52.392;13.066;2023-07-29T04:41:48;27.60;52.50
24730;DHT22;12832;52.392;13.066;2023-07-29T04:44:14;27.50;52.50
24730;DHT22;12832;52.392;13.066;2023-07-29T04:46:40;27.50;52.50
24730;DHT22;12832;52.392;13.066;2023-07-29T04:49:06;27.50;52.50
24730;DHT22;12832;52.392;13.066;2023-07-29T04:51:33;27.50;52.50
24730;DHT22;12832;52.392;13.066;2023-07-29T04:53:59;27.50;52.50
24730;DHT22;12832;52.392;13.066;2023-07-29T04:56:26;27.50;52.50
24730;DHT22;12832;52.392;13.066;2023-07-29T04:58:52;27.50;52.50
24730;DHT22;12832;52.392;13.066;2023-07-29T05:01:19;27.50;52.50
24730;DHT22;12832;52.392;13.066;2023-07-29T05:03:46;27.50;53.20
24730;DHT22;12832;52.392;13.066;2023-07-29T05:06:12;27.50;52.50
24730;DHT22;12832;52.392;13.066;2023-07-29T05:08:38;27.50;52.50
24730;DHT22;12832;52.392;13.066;2023-07-29T05:11:04;27.50;52.50
24730;DHT22;12832;52.392;13.066;2023-07-29T05:13:30;27.50;52.50
24730;DHT22;12832;52.392;13.066;2023-07-29T05:15:56;27.50;52.50
24730;DHT22;12832;52.392;13.066;2023-07-29T05:18:23;27.50;52.50
24730;DHT22;12832;52.392;13.066;2023-07-29T05:20:49;27.50;52.50
24730;DHT22;12832;52.392;13.066;2023-07-29T05:23:15;27.50;53.20
24730;DHT22;12832;52.392;13.066;2023-07-29T05:25:41;27.50;52.50
24730;DHT22;12832;52.392;13.066;2023-07-29T05:28:07;27.50;52.50
24730;DHT22;12832;52.392;13.066;2023-07-29T05:30:34;27.50;52.50
24730;DHT22;12832;52.392;13.066;2023-07-29T05:33:03;27.50;52.50
24730;DHT22;12832;52.392;13.066;2023-07-29T05:35:30;27.60;52.50
24730;DHT22;12832;52.392;13.066;2023-07-29T05:37:56;27.60;52.50
24730;DHT22;12832;52.392;13.066;2023-07-29T05:40:23;27.50;52.40
24730;DHT22;12832;52.392;13.066;2023-07-29T05:42:49;27.50;52.40
24730;DHT22;12832;52.392;13.066;2023-07-29T05:45:16;27.60;52.50
24730;DHT22;12832;52.392;13.066;2023-07-29T05:47:43;27.50;52.40
24730;DHT22;12832;52.392;13.066;2023-07-29T05:50:09;27.60;52.50
24730;DHT22;12832;52.392;13.066;2023-07-29T05:52:36;27.60;52.50
24730;DHT22;12832;52.392;13.066;2023-07-29T05:55:03;27.50;52.40
24730;DHT22;12832;52.392;13.066;2023-07-29T05:57:29;27.60;52.40
24730;DHT22;12832;52.392;13.066;2023-07-29T05:59:55;27.60;52.40
24730;DHT22;12832;52.392;13.066;2023-07-29T06:02:22;27.60;52.40
24730;DHT22;12832;52.392;13.066;2023-07-29T06:04:49;27.60;52.40
24730;DHT22;12832;52.392;13.066;2023-07-29T06:07:15;27.60;52.40
24730;DHT22;12832;52.392;13.066;2023-07-29T06:09:41;27.60;52.40
24730;DHT22;12832;52.392;13.066;2023-07-29T06:12:08;27.60;52.30
24730;DHT22;12832;52.392;13.066;2023-07-29T06:14:34;27.60;52.30
24730;DHT22;12832;52.392;13.066;2023-07-29T06:17:00;27.60;52.30
24730;DHT22;12832;52.392;13.066;2023-07-29T06:19:27;27.70;52.40
24730;DHT22;12832;52.392;13.066;2023-07-29T06:21:55;27.60;52.30
24730;DHT22;12832;52.392;13.066;2023-07-29T06:24:21;27.60;52.30
24730;DHT22;12832;52.392;13.066;2023-07-29T06:26:47;27.60;52.30
24730;DHT22;12832;52.392;13.066;2023-07-29T06:29:14;27.60;52.20
24730;DHT22;12832;52.392;13.066;2023-07-29T06:31:40;27.60;52.20
24730;DHT22;12832;52.392;13.066;2023-07-29T06:34:06;27.60;52.20
24730;DHT22;12832;52.392;13.066;2023-07-29T06:36:32;27.60;52.20
24730;DHT22;12832;52.392;13.066;2023-07-29T06:38:58;27.60;52.20
24730;DHT22;12832;52.392;13.066;2023-07-29T06:41:25;27.70;52.20
24730;DHT22;12832;52.392;13.066;2023-07-29T06:43:51;27.70;52.20
24730;DHT22;12832;52.392;13.066;2023-07-29T06:46:17;27.70;52.20
24730;DHT22;12832;52.392;13.066;2023-07-29T06:48:43;27.70;52.20
24730;DHT22;12832;52.392;13.066;2023-07-29T06:51:09;27.70;52.20
24730;DHT22;12832;52.392;13.066;2023-07-29T06:53:35;27.70;52.20
24730;DHT22;12832;52.392;13.066;2023-07-29T06:56:02;27.70;52.20
24730;DHT22;12832;52.392;13.066;2023-07-29T06:58:28;27.60;52.10
24730;DHT22;12832;52.392;13.066;2023-07-29T07:00:54;27.70;52.20
24730;DHT22;12832;52.392;13.066;2023-07-29T07:03:23;27.70;52.20
24730;DHT22;12832;52.392;13.066;2023-07-29T07:05:50;27.70;52.20
24730;DHT22;12832;52.392;13.066;2023-07-29T07:08:16;27.70;52.20
24730;DHT22;12832;52.392;13.066;2023-07-29T07:10:42;27.60;52.10
24730;DHT22;12832;52.392;13.066;2023-07-29T07:13:09;27.70;52.10
24730;DHT22;12832;52.392;13.066;2023-07-29T07:15:35;27.70;52.10
24730;DHT22;12832;52.392;13.066;2023-07-29T07:18:01;27.70;52.10
24730;DHT22;12832;52.392;13.066;2023-07-29T07:20:27;27.60;52.00
24730;DHT22;12832;52.392;13.066;2023-07-29T07:22:54;27.70;52.10
24730;DHT22;12832;52.392;13.066;2023-07-29T07:25:21;27.70;52.10
24730;DHT22;12832;52.392;13.066;2023-07-29T07:27:47;27.70;52.10
24730;DHT22;12832;52.392;13.066;2023-07-29T07:30:14;27.70;52.10
24730;DHT22;12832;52.392;13.066;2023-07-29T07:32:41;27.70;52.70
24730;DHT22;12832;52.392;13.066;2023-07-29T07:35:07;27.70;52.00
24730;DHT22;12832;52.392;13.066;2023-07-29T07:37:33;27.70;52.00
24730;DHT22;12832;52.392;13.066;2023-07-29T07:40:00;27.70;52.10
24730;DHT22;12832;52.392;13.066;2023-07-29T07:42:26;27.70;52.00
24730;DHT22;12832;52.392;13.066;2023-07-29T07:44:52;27.70;52.00
24730;DHT22;12832;52.392;13.066;2023-07-29T07:47:18;27.70;52.00
24730;DHT22;12832;52.392;13.066;2023-07-29T07:49:45;27.70;52.00
24730;DHT22;12832;52.392;13.066;2023-07-29T07:52:11;27.70;52.00
24730;DHT22;12832;52.392;13.066;2023-07-29T07:54:37;27.70;52.00
24730;DHT22;12832;52.392;13.066;2023-07-29T07:57:03;27.70;52.00
24730;DHT22;12832;52.392;13.066;2023-07-29T07:59:29;27.70;52.00
24730;DHT22;12832;52.392;13.066;2023-07-29T08:01:56;27.70;52.00
24730;DHT22;12832;52.392;13.066;2023-07-29T08:04:22;27.70;52.00
24730;DHT22;12832;52.392;13.066;2023-07-29T08:06:48;27.70;51.90
24730;DHT22;12832;52.392;13.066;2023-07-29T08:09:14;27.70;52.00
24730;DHT22;12832;52.392;13.066;2023-07-29T08:11:40;27.70;51.90
24730;DHT22;12832;52.392;13.066;2023-07-29T08:14:07;27.70;52.00
24730;DHT22;12832;52.392;13.066;2023-07-29T08:16:33;27.70;52.00
24730;DHT22;12832;52.392;13.066;2023-07-29T08:18:59;27.70;51.90
24730;DHT22;12832;52.392;13.066;2023-07-29T08:21:27;27.70;51.90
24730;DHT22;12832;52.392;13.066;2023-07-29T08:23:53;27.70;51.90
24730;DHT22;12832;52.392;13.066;2023-07-29T08:26:19;27.70;51.90
24730;DHT22;12832;52.392;13.066;2023-07-29T08:28:45;27.70;51.90
24730;DHT22;12832;52.392;13.066;2023-07-29T08:31:11;27.70;51.90
24730;DHT22;12832;52.392;13.066;2023-07-29T08:33:38;27.70;51.90
24730;DHT22;12832;52.392;13.066;2023-07-29T08:36:04;27.70;51.90
24730;DHT22;12832;52.392;13.066;2023-07-29T08:38:30;27.70;51.90
24730;DHT22;12832;52.392;13.066;2023-07-29T08:41:19;27.70;51.80
24730;DHT22;12832;52.392;13.066;2023-07-29T08:43:52;27.70;51.80
24730;DHT22;12832;52.392;13.066;2023-07-29T08:46:22;27.70;51.80
24730;DHT22;12832;52.392;13.066;2023-07-29T08:48:49;27.70;51.80
24730;DHT22;12832;52.392;13.066;2023-07-29T08:51:16;27.80;51.90
24730;DHT22;12832;52.392;13.066;2023-07-29T08:53:43;27.70;51.80
24730;DHT22;12832;52.392;13.066;2023-07-29T08:56:09;27.70;51.80
24730;DHT22;12832;52.392;13.066;2023-07-29T08:58:36;27.70;51.80
24730;DHT22;12832;52.392;13.066;2023-07-29T09:01:03;27.70;51.80
24730;DHT22;12832;52.392;13.066;2023-07-29T09:03:29;27.70;51.80
24730;DHT22;12832;52.392;13.066;2023-07-29T09:05:57;27.70;51.80
24730;DHT22;12832;52.392;13.066;2023-07-29T09:08:28;27.80;51.90
24730;DHT22;12832;52.392;13.066;2023-07-29T09:10:55;27.70;51.80
24730;DHT22;12832;52.392;13.066;2023-07-29T09:13:22;27.80;51.80
24730;DHT22;12832;52.392;13.066;2023-07-29T09:15:48;27.70;52.40
24730;DHT22;12832;52.392;13.066;2023-07-29T09:18:19;27.80;51.80
24730;DHT22;12832;52.392;13.066;2023-07-29T09:20:47;27.70;51.80
24730;DHT22;12832;52.392;13.066;2023-07-29T09:23:14;27.80;51.80
24730;DHT22;12832;52.392;13.066;2023-07-29T09:25:40;27.80;51.80
24730;DHT22;12832;52.392;13.066;2023-07-29T09:28:14;27.80;51.80
24730;DHT22;12832;52.392;13.066;2023-07-29T09:30:42;27.80;51.80
24730;DHT22;12832;52.392;13.066;2023-07-29T09:33:09;27.70;51.70
24730;DHT22;12832;52.392;13.066;2023-07-29T09:35:36;27.80;51.80
24730;DHT22;12832;52.392;13.066;2023-07-29T09:38:05;27.70;51.70
24730;DHT22;12832;52.392;13.066;2023-07-29T09:40:35;27.80;51.80
24730;DHT22;12832;52.392;13.066;2023-07-29T09:43:02;27.80;51.80
24730;DHT22;12832;52.392;13.066;2023-07-29T09:45:30;27.80;51.80
24730;DHT22;12832;52.392;13.066;2023-07-29T09:47:57;27.80;51.80
24730;DHT22;12832;52.392;13.066;2023-07-29T09:50:25;27.80;51.80
24730;DHT22;12832;52.392;13.066;2023-07-29T09:52:52;27.80;51.80
24730;DHT22;12832;52.392;13.066;2023-07-29T09:55:21;27.80;51.80
24730;DHT22;12832;52.392;13.066;2023-07-29T09:57:47;27.80;51.80
24730;DHT22;12832;52.392;13.066;2023-07-29T10:00:14;27.80;51.80
24730;DHT22;12832;52.392;13.066;2023-07-29T10:02:42;27.80;51.80
24730;DHT22;12832;52.392;13.066;2023-07-29T10:05:09;27.80;51.80
24730;DHT22;12832;52.392;13.066;2023-07-29T10:07:39;27.80;51.80
24730;DHT22;12832;52.392;13.066;2023-07-29T10:10:07;27.70;51.70
24730;DHT22;12832;52.392;13.066;2023-07-29T10:12:34;27.70;51.70
24730;DHT22;12832;52.392;13.066;2023-07-29T10:15:05;27.80;52.40
24730;DHT22;12832;52.392;13.066;2023-07-29T10:17:38;27.80;51.80
24730;DHT22;12832;52.392;13.066;2023-07-29T10:20:10;27.80;51.70
24730;DHT22;12832;52.392;13.066;2023-07-29T10:22:39;27.70;51.70
24730;DHT22;12832;52.392;13.066;2023-07-29T10:25:13;27.80;51.70
24730;DHT22;12832;52.392;13.066;2023-07-29T10:27:56;27.80;51.70
24730;DHT22;12832;52.392;13.066;2023-07-29T10:30:24;27.80;51.70
24730;DHT22;12832;52.392;13.066;2023-07-29T10:32:52;27.80;51.70
24730;DHT22;12832;52.392;13.066;2023-07-29T10:35:19;27.80;51.70
24730;DHT22;12832;52.392;13.066;2023-07-29T10:37:46;27.80;51.70
24730;DHT22;12832;52.392;13.066;2023-07-29T10:40:12;27.80;51.70
24730;DHT22;12832;52.392;13.066;2023-07-29T10:42:39;27.80;51.70
24730;DHT22;12832;52.392;13.066;2023-07-29T10:45:25;27.80;51.70
24730;DHT22;12832;52.392;13.066;2023-07-29T10:47:51;27.80;51.70
24730;DHT22;12832;52.392;13.066;2023-07-29T10:50:19;27.80;51.70
24730;DHT22;12832;52.392;13.066;2023-07-29T10:52:49;27.80;51.70
24730;DHT22;12832;52.392;13.066;2023-07-29T10:55:32;27.80;51.70
24730;DHT22;12832;52.392;13.066;2023-07-29T10:58:24;27.80;51.70
24730;DHT22;12832;52.392;13.066;2023-07-29T11:00:50;27.70;51.70
24730;DHT22;12832;52.392;13.066;2023-07-29T11:03:17;27.80;51.70
24730;DHT22;12832;52.392;13.066;2023-07-29T11:05:51;27.80;51.80
24730;DHT22;12832;52.392;13.066;2023-07-29T11:08:23;27.80;51.70
24730;DHT22;12832;52.392;13.066;2023-07-29T11:11:07;27.80;51.70
24730;DHT22;12832;52.392;13.066;2023-07-29T11:13:35;27.80;51.70
24730;DHT22;12832;52.392;13.066;2023-07-29T11:16:03;27.80;51.70
24730;DHT22;12832;52.392;13.066;2023-07-29T11:18:33;27.80;51.70
24730;DHT22;12832;52.392;13.066;2023-07-29T11:21:01;27.80;51.80
24730;DHT22;12832;52.392;13.066;2023-07-29T11:23:32;27.80;51.70
24730;DHT22;12832;52.392;13.066;2023-07-29T11:26:00;27.80;51.60
24730;DHT22;12832;52.392;13.066;2023-07-29T11:28:27;27.80;51.60
24730;DHT22;12832;52.392;13.066;2023-07-29T11:30:57;27.80;51.70
24730;DHT22;12832;52.392;13.066;2023-07-29T11:33:27;27.80;51.70
24730;DHT22;12832;52.392;13.066;2023-07-29T11:35:54;27.80;51.70
24730;DHT22;12832;52.392;13.066;2023-07-29T11:38:22;27.80;51.60
24730;DHT22;12832;52.392;13.066;2023-07-29T11:41:18;27.80;51.70
24730;DHT22;12832;52.392;13.066;2023-07-29T11:43:45;27.80;51.70
24730;DHT22;12832;52.392;13.066;2023-07-29T11:46:11;27.80;51.70
24730;DHT22;12832;52.392;13.066;2023-07-29T11:48:37;27.80;51.60
24730;DHT22;12832;52.392;13.066;2023-07-29T11:51:03;27.80;51.70
24730;DHT22;12832;52.392;13.066;2023-07-29T11:53:30;27.80;51.60
24730;DHT22;12832;52.392;13.066;2023-07-29T11:55:57;27.80;51.60
24730;DHT22;12832;52.392;13.066;2023-07-29T11:58:24;27.80;51.60
24730;DHT22;12832;52.392;13.066;2023-07-29T12:00:51;27.80;51.60
24730;DHT22;12832;52.392;13.066;2023-07-29T12:03:18;27.80;51.60
24730;DHT22;12832;52.392;13.066;2023-07-29T12:05:45;27.80;51.60
24730;DHT22;12832;52.392;13.066;2023-07-29T12:08:11;27.80;51.60
24730;DHT22;12832;52.392;13.066;2023-07-29T12:10:37;27.80;51.60
24730;DHT22;12832;52.392;13.066;2023-07-29T12:13:04;27.80;51.60
24730;DHT22;12832;52.392;13.066;2023-07-29T12:15:30;27.80;51.60
24730;DHT22;12832;52.392;13.066;2023-07-29T12:17:58;27.80;51.60
24730;DHT22;12832;52.392;13.066;2023-07-29T12:20:26;27.80;51.60
24730;DHT22;12832;52.392;13.066;2023-07-29T12:22:57;27.80;51.60
24730;DHT22;12832;52.392;13.066;2023-07-29T12:25:25;27.80;51.60
24730;DHT22;12832;52.392;13.066;2023-07-29T12:27:51;27.80;51.60
24730;DHT22;12832;52.392;13.066;2023-07-29T12:30:22;27.80;51.60
24730;DHT22;12832;52.392;13.066;2023-07-29T12:32:48;27.80;51.60
24730;DHT22;12832;52.392;13.066;2023-07-29T12:35:15;27.80;51.60
24730;DHT22;12832;52.392;13.066;2023-07-29T12:37:41;27.80;51.50
24730;DHT22;12832;52.392;13.066;2023-07-29T12:40:21;27.90;51.60
24730;DHT22;12832;52.392;13.066;2023-07-29T12:42:49;27.80;51.50
24730;DHT22;12832;52.392;13.066;2023-07-29T12:45:16;27.80;51.50
24730;DHT22;12832;52.392;13.066;2023-07-29T12:47:43;27.80;51.50
24730;DHT22;12832;52.392;13.066;2023-07-29T12:50:10;27.90;51.60
24730;DHT22;12832;52.392;13.066;2023-07-29T12:52:36;27.80;51.50
24730;DHT22;12832;52.392;13.066;2023-07-29T12:55:02;27.80;51.50
24730;DHT22;12832;52.392;13.066;2023-07-29T12:57:29;27.80;51.50
24730;DHT22;12832;52.392;13.066;2023-07-29T12:59:55;27.80;51.50
24730;DHT22;12832;52.392;13.066;2023-07-29T13:02:21;27.80;51.50
24730;DHT22;12832;52.392;13.066;2023-07-29T13:04:47;27.90;51.60
24730;DHT22;12832;52.392;13.066;2023-07-29T13:07:13;27.90;51.60
24730;DHT22;12832;52.392;13.066;2023-07-29T13:09:39;27.80;51.50
24730;DHT22;12832;52.392;13.066;2023-07-29T13:12:06;27.80;51.50
24730;DHT22;12832;52.392;13.066;2023-07-29T13:14:32;27.90;51.60
24730;DHT22;12832;52.392;13.066;2023-07-29T13:16:58;27.80;51.50
24730;DHT22;12832;52.392;13.066;2023-07-29T13:19:25;27.90;51.60
24730;DHT22;12832;52.392;13.066;2023-07-29T13:21:51;27.90;51.60
24730;DHT22;12832;52.392;13.066;2023-07-29T13:24:17;27.90;51.60
24730;DHT22;12832;52.392;13.066;2023-07-29T13:26:43;27.80;51.50
24730;DHT22;12832;52.392;13.066;2023-07-29T13:29:09;27.80;51.50
24730;DHT22;12832;52.392;13.066;2023-07-29T13:31:35;27.90;51.60
24730;DHT22;12832;52.392;13.066;2023-07-29T13:34:02;27.80;51.50
24730;DHT22;12832;52.392;13.066;2023-07-29T13:36:28;27.80;51.50
24730;DHT22;12832;52.392;13.066;2023-07-29T13:38:54;27.90;51.60
24730;DHT22;12832;52.392;13.066;2023-07-29T13:41:20;27.80;51.50
24730;DHT22;12832;52.392;13.066;2023-07-29T13:43:47;27.90;51.50
24730;DHT22;12832;52.392;13.066;2023-07-29T13:46:13;27.80;51.50
24730;DHT22;12832;52.392;13.066;2023-07-29T13:48:39;27.80;51.50
24730;DHT22;12832;52.392;13.066;2023-07-29T13:51:05;27.80;51.50
24730;DHT22;12832;52.392;13.066;2023-07-29T13:53:32;27.90;51.50
24730;DHT22;12832;52.392;13.066;2023-07-29T13:55:58;27.90;51.50
24730;DHT22;12832;52.392;13.066;2023-07-29T13:58:24;27.80;51.50
24730;DHT22;12832;52.392;13.066;2023-07-29T14:00:52;27.90;51.60
24730;DHT22;12832;52.392;13.066;2023-07-29T14:03:18;27.90;51.50
24730;DHT22;12832;52.392;13.066;2023-07-29T14:05:44;27.80;51.50
24730;DHT22;12832;52.392;13.066;2023-07-29T14:08:10;27.90;51.50
24730;DHT22;12832;52.392;13.066;2023-07-29T14:10:37;27.80;51.50
24730;DHT22;12832;52.392;13.066;2023-07-29T14:13:03;27.80;51.50
24730;DHT22;12832;52.392;13.066;2023-07-29T14:15:29;27.80;51.40
24730;DHT22;12832;52.392;13.066;2023-07-29T14:17:55;27.80;51.50
24730;DHT22;12832;52.392;13.066;2023-07-29T14:20:21;27.90;51.50
24730;DHT22;12832;52.392;13.066;2023-07-29T14:22:48;27.80;52.10
24730;DHT22;12832;52.392;13.066;2023-07-29T14:25:15;27.90;51.50
24730;DHT22;12832;52.392;13.066;2023-07-29T14:27:41;27.90;51.50
24730;DHT22;12832;52.392;13.066;2023-07-29T14:30:07;27.80;51.50
24730;DHT22;12832;52.392;13.066;2023-07-29T14:32:34;27.90;51.50
24730;DHT22;12832;52.392;13.066;2023-07-29T14:35:00;27.90;51.50
24730;DHT22;12832;52.392;13.066;2023-07-29T14:37:30;27.90;51.50
24730;DHT22;12832;52.392;13.066;2023-07-29T14:40:00;27.90;51.50
24730;DHT22;12832;52.392;13.066;2023-07-29T14:42:27;27.80;51.40
24730;DHT22;12832;52.392;13.066;2023-07-29T14:44:54;27.90;51.50
24730;DHT22;12832;52.392;13.066;2023-07-29T14:47:20;27.90;51.50
24730;DHT22;12832;52.392;13.066;2023-07-29T14:49:46;27.80;51.40
24730;DHT22;12832;52.392;13.066;2023-07-29T14:52:12;27.90;51.50
24730;DHT22;12832;52.392;13.066;2023-07-29T14:54:39;27.90;51.50
24730;DHT22;12832;52.392;13.066;2023-07-29T14:57:07;27.90;51.40
24730;DHT22;12832;52.392;13.066;2023-07-29T14:59:33;27.90;51.40
24730;DHT22;12832;52.392;13.066;2023-07-29T15:01:59;27.80;51.40
24730;DHT22;12832;52.392;13.066;2023-07-29T15:04:25;27.90;51.40
24730;DHT22;12832;52.392;13.066;2023-07-29T15:06:52;27.90;51.40
24730;DHT22;12832;52.392;13.066;2023-07-29T15:09:18;27.90;51.50
24730;DHT22;12832;52.392;13.066;2023-07-29T15:11:44;27.90;51.40
24730;DHT22;12832;52.392;13.066;2023-07-29T15:14:10;27.90;51.50
24730;DHT22;12832;52.392;13.066;2023-07-29T15:16:37;27.90;51.50
24730;DHT22;12832;52.392;13.066;2023-07-29T15:19:05;27.90;51.50
24730;DHT22;12832;52.392;13.066;2023-07-29T15:21:31;27.90;51.60
24730;DHT22;12832;52.392;13.066;2023-07-29T15:23:59;27.90;51.50
24730;DHT22;12832;52.392;13.066;2023-07-29T15:26:26;27.90;51.60